sensor_id;sensor_type;location;lat;lon;timestamp;temperature;humidity
69082;DHT22;56184;51.986;5.760;2023-01-15T00:01:37;8.00;99.90
69082;DHT22;56184;51.986;5.760;2023-01-15T00:04:15;8.00;99.10
69082;DHT22;56184;51.986;5.760;2023-01-15T00:06:54;7.90;99.60
69082;DHT22;56184;51.986;5.760;2023-01-15T00:09:37;7.90;99.90
69082;DHT22;56184;51.986;5.760;2023-01-15T00:12:03;7.90;99.70
69082;DHT22;56184;51.986;5.760;2023-01-15T00:14:43;7.90;99.90
69082;DHT22;56184;51.986;5.760;2023-01-15T00:17:12;7.90;99.90
69082;DHT22;56184;51.986;5.760;2023-01-15T00:19:53;7.80;99.90
69082;DHT22;56184;51.986;5.760;2023-01-15T00:22:24;7.80;99.90
69082;DHT22;56184;51.986;5.760;2023-01-15T00:24:53;7.90;99.90
69082;DHT22;56184;51.986;5.760;2023-01-15T00:27:37;7.90;99.90
69082;DHT22;56184;51.986;5.760;2023-01-15T00:30:07;7.90;99.90
69082;DHT22;56184;51.986;5.760;2023-01-15T00:32:35;7.80;99.90
69082;DHT22;56184;51.986;5.760;2023-01-15T00:35:18;7.90;99.90
69082;DHT22;56184;51.986;5.760;2023-01-15T00:37:44;7.90;99.90
69082;DHT22;56184;51.986;5.760;2023-01-15T00:40:10;8.00;99.80
69082;DHT22;56184;51.986;5.760;2023-01-15T00:42:36;7.90;99.90
69082;DHT22;56184;51.986;5.760;2023-01-15T00:45:17;7.90;99.90
69082;DHT22;56184;51.986;5.760;2023-01-15T00:47:44;7.90;99.90
69082;DHT22;56184;51.986;5.760;2023-01-15T00:50:13;7.90;99.90
69082;DHT22;56184;51.986;5.760;2023-01-15T00:52:40;7.90;99.90
69082;DHT22;56184;51.986;5.760;2023-01-15T00:55:07;8.00;99.60
69082;DHT22;56184;51.986;5.760;2023-01-15T00:57:32;7.80;99.70
69082;DHT22;56184;51.986;5.760;2023-01-15T01:00:08;7.90;99.90
69082;DHT22;56184;51.986;5.760;2023-01-15T01:02:39;7.90;99.90
69082;DHT22;56184;51.986;5.760;2023-01-15T01:05:08;7.90;99.90
69082;DHT22;56184;51.986;5.760;2023-01-15T01:07:39;7.90;99.00
69082;DHT22;56184;51.986;5.760;2023-01-15T01:10:20;7.90;99.00
69082;DHT22;56184;51.986;5.760;2023-01-15T01:12:51;7.90;99.80
69082;DHT22;56184;51.986;5.760;2023-01-15T01:15:21;7.90;99.80
69082;DHT22;56184;51.986;5.760;2023-01-15T01:17:47;7.90;98.30
69082;DHT22;56184;51.986;5.760;2023-01-15T01:20:14;7.80;98.50
69082;DHT22;56184;51.986;5.760;2023-01-15T01:22:43;7.70;98.90
69082;DHT22;56184;51.986;5.760;2023-01-15T01:25:09;7.70;99.00
69082;DHT22;56184;51.986;5.760;2023-01-15T01:27:43;7.70;99.00
69082;DHT22;56184;51.986;5.760;2023-01-15T01:30:13;7.70;98.30
69082;DHT22;56184;51.986;5.760;2023-01-15T01:32:39;7.60;98.10
69082;DHT22;56184;51.986;5.760;2023-01-15T01:35:14;7.60;98.00
69082;DHT22;56184;51.986;5.760;2023-01-15T01:37:51;7.80;97.80
69082;DHT22;56184;51.986;5.760;2023-01-15T01:40:23;7.80;98.50
69082;DHT22;56184;51.986;5.760;2023-01-15T01:42:52;7.70;97.90
69082;DHT22;56184;51.986;5.760;2023-01-15T01:45:34;7.70;98.10
69082;DHT22;56184;51.986;5.760;2023-01-15T01:48:05;7.60;99.10
69082;DHT22;56184;51.986;5.760;2023-01-15T01:50:38;7.60;97.70
69082;DHT22;56184;51.986;5.760;2023-01-15T01:53:23;7.60;99.10
69082;DHT22;56184;51.986;5.760;2023-01-15T01:56:01;7.60;99.00
69082;DHT22;56184;51.986;5.760;2023-01-15T01:58:34;7.50;98.70
69082;DHT22;56184;51.986;5.760;2023-01-15T02:01:00;7.60;99.60
69082;DHT22;56184;51.986;5.760;2023-01-15T02:03:36;7.60;98.90
69082;DHT22;56184;51.986;5.760;2023-01-15T02:06:24;7.60;98.50
69082;DHT22;56184;51.986;5.760;2023-01-15T02:08:56;7.60;98.20
69082;DHT22;56184;51.986;5.760;2023-01-15T02:11:25;7.50;97.60
69082;DHT22;56184;51.986;5.760;2023-01-15T02:14:14;7.60;97.30
69082;DHT22;56184;51.986;5.760;2023-01-15T02:28:31;7.30;98.80
69082;DHT22;56184;51.986;5.760;2023-01-15T02:33:50;7.30;99.20
69082;DHT22;56184;51.986;5.760;2023-01-15T02:36:22;7.40;99.00
69082;DHT22;56184;51.986;5.760;2023-01-15T02:38:50;7.40;99.20
69082;DHT22;56184;51.986;5.760;2023-01-15T02:41:58;7.40;98.20
69082;DHT22;56184;51.986;5.760;2023-01-15T02:47:28;7.30;98.00
69082;DHT22;56184;51.986;5.760;2023-01-15T02:49:59;7.30;98.70
69082;DHT22;56184;51.986;5.760;2023-01-15T02:52:52;7.20;99.80
69082;DHT22;56184;51.986;5.760;2023-01-15T02:55:29;7.30;99.20
69082;DHT22;56184;51.986;5.760;2023-01-15T02:58:11;7.30;99.00
69082;DHT22;56184;51.986;5.760;2023-01-15T03:00:44;7.20;98.40
69082;DHT22;56184;51.986;5.760;2023-01-15T03:03:23;7.30;99.40
69082;DHT22;56184;51.986;5.760;2023-01-15T03:06:17;7.30;98.10
69082;DHT22;56184;51.986;5.760;2023-01-15T03:08:54;7.20;99.00
69082;DHT22;56184;51.986;5.760;2023-01-15T03:11:36;7.20;99.80
69082;DHT22;56184;51.986;5.760;2023-01-15T03:14:23;7.20;99.20
69082;DHT22;56184;51.986;5.760;2023-01-15T03:16:57;7.30;99.40
69082;DHT22;56184;51.986;5.760;2023-01-15T03:22:45;7.20;99.60
69082;DHT22;56184;51.986;5.760;2023-01-15T03:25:20;7.20;99.20
69082;DHT22;56184;51.986;5.760;2023-01-15T03:27:49;7.10;99.20
69082;DHT22;56184;51.986;5.760;2023-01-15T03:30:19;7.00;98.70
69082;DHT22;56184;51.986;5.760;2023-01-15T03:32:45;7.10;98.00
69082;DHT22;56184;51.986;5.760;2023-01-15T03:38:18;7.10;98.30
69082;DHT22;56184;51.986;5.760;2023-01-15T03:44:31;7.10;98.60
69082;DHT22;56184;51.986;5.760;2023-01-15T03:50:26;7.00;98.90
69082;DHT22;56184;51.986;5.760;2023-01-15T03:53:09;7.00;99.20
69082;DHT22;56184;51.986;5.760;2023-01-15T03:58:29;7.10;98.10
69082;DHT22;56184;51.986;5.760;2023-01-15T04:00:59;7.00;98.00
69082;DHT22;56184;51.986;5.760;2023-01-15T04:03:27;7.00;98.40
69082;DHT22;56184;51.986;5.760;2023-01-15T04:05:56;7.10;99.30
69082;DHT22;56184;51.986;5.760;2023-01-15T04:08:26;7.00;99.60
69082;DHT22;56184;51.986;5.760;2023-01-15T04:10:55;7.00;98.30
69082;DHT22;56184;51.986;5.760;2023-01-15T04:13:21;7.00;98.40
69082;DHT22;56184;51.986;5.760;2023-01-15T04:15:56;7.00;98.70
69082;DHT22;56184;51.986;5.760;2023-01-15T04:18:22;6.90;98.60
69082;DHT22;56184;51.986;5.760;2023-01-15T04:20:48;6.90;98.30
69082;DHT22;56184;51.986;5.760;2023-01-15T04:23:22;6.90;98.40
69082;DHT22;56184;51.986;5.760;2023-01-15T04:25:57;6.90;98.50
69082;DHT22;56184;51.986;5.760;2023-01-15T04:28:28;6.90;98.90
69082;DHT22;56184;51.986;5.760;2023-01-15T04:30:56;6.90;98.80
69082;DHT22;56184;51.986;5.760;2023-01-15T04:33:21;6.90;99.00
69082;DHT22;56184;51.986;5.760;2023-01-15T04:35:50;6.90;98.50
69082;DHT22;56184;51.986;5.760;2023-01-15T04:38:25;6.80;98.20
69082;DHT22;56184;51.986;5.760;2023-01-15T04:40:51;6.90;98.20
69082;DHT22;56184;51.986;5.760;2023-01-15T04:44:05;7.00;97.80
69082;DHT22;56184;51.986;5.760;2023-01-15T04:46:52;7.00;97.20
69082;DHT22;56184;51.986;5.760;2023-01-15T04:49:21;6.90;98.20
69082;DHT22;56184;51.986;5.760;2023-01-15T04:51:58;6.90;98.40
69082;DHT22;56184;51.986;5.760;2023-01-15T04:54:30;6.80;99.00
69082;DHT22;56184;51.986;5.760;2023-01-15T04:57:01;6.80;99.10
69082;DHT22;56184;51.986;5.760;2023-01-15T04:59:29;6.80;97.80
69082;DHT22;56184;51.986;5.760;2023-01-15T05:01:55;6.80;98.80
69082;DHT22;56184;51.986;5.760;2023-01-15T05:04:21;6.80;98.40
69082;DHT22;56184;51.986;5.760;2023-01-15T05:07:03;6.70;98.30
69082;DHT22;56184;51.986;5.760;2023-01-15T05:09:29;6.70;99.30
69082;DHT22;56184;51.986;5.760;2023-01-15T05:11:55;6.70;98.70
69082;DHT22;56184;51.986;5.760;2023-01-15T05:14:29;6.70;98.40
69082;DHT22;56184;51.986;5.760;2023-01-15T05:16:57;6.70;98.60
69082;DHT22;56184;51.986;5.760;2023-01-15T05:19:22;6.80;98.40
69082;DHT22;56184;51.986;5.760;2023-01-15T05:21:57;6.70;98.10
69082;DHT22;56184;51.986;5.760;2023-01-15T05:24:35;6.70;97.50
69082;DHT22;56184;51.986;5.760;2023-01-15T05:27:01;6.70;98.80
69082;DHT22;56184;51.986;5.760;2023-01-15T05:33:04;6.70;99.50
69082;DHT22;56184;51.986;5.760;2023-01-15T05:35:30;6.60;98.70
69082;DHT22;56184;51.986;5.760;2023-01-15T05:38:08;6.60;99.20
69082;DHT22;56184;51.986;5.760;2023-01-15T05:40:34;6.70;97.90
69082;DHT22;56184;51.986;5.760;2023-01-15T05:46:33;6.60;97.70
69082;DHT22;56184;51.986;5.760;2023-01-15T05:49:01;6.70;97.80
69082;DHT22;56184;51.986;5.760;2023-01-15T05:51:29;6.60;98.70
69082;DHT22;56184;51.986;5.760;2023-01-15T05:54:05;6.50;97.50
69082;DHT22;56184;51.986;5.760;2023-01-15T05:56:50;6.50;98.60
69082;DHT22;56184;51.986;5.760;2023-01-15T05:59:25;6.50;98.30
69082;DHT22;56184;51.986;5.760;2023-01-15T06:01:59;6.50;99.00
69082;DHT22;56184;51.986;5.760;2023-01-15T06:04:27;6.50;98.30
69082;DHT22;56184;51.986;5.760;2023-01-15T06:07:08;6.60;98.00
69082;DHT22;56184;51.986;5.760;2023-01-15T06:09:36;6.60;98.20
69082;DHT22;56184;51.986;5.760;2023-01-15T06:12:11;6.60;97.90
69082;DHT22;56184;51.986;5.760;2023-01-15T06:14:36;6.60;97.10
69082;DHT22;56184;51.986;5.760;2023-01-15T06:17:02;6.60;98.80
69082;DHT22;56184;51.986;5.760;2023-01-15T06:19:28;6.50;98.20
69082;DHT22;56184;51.986;5.760;2023-01-15T06:21:56;6.50;97.50
69082;DHT22;56184;51.986;5.760;2023-01-15T06:24:24;6.50;97.80
69082;DHT22;56184;51.986;5.760;2023-01-15T06:26:53;6.50;97.50
69082;DHT22;56184;51.986;5.760;2023-01-15T06:29:27;6.50;98.80
69082;DHT22;56184;51.986;5.760;2023-01-15T06:32:02;6.40;98.30
69082;DHT22;56184;51.986;5.760;2023-01-15T06:34:40;6.40;98.20
69082;DHT22;56184;51.986;5.760;2023-01-15T06:37:23;6.40;99.10
69082;DHT22;56184;51.986;5.760;2023-01-15T06:39:57;6.30;97.60
69082;DHT22;56184;51.986;5.760;2023-01-15T06:46:01;6.30;97.20
69082;DHT22;56184;51.986;5.760;2023-01-15T06:54:29;6.20;99.90
69082;DHT22;56184;51.986;5.760;2023-01-15T07:04:24;5.70;99.90
69082;DHT22;56184;51.986;5.760;2023-01-15T07:06:56;5.70;99.90
69082;DHT22;56184;51.986;5.760;2023-01-15T07:09:21;5.60;99.90
69082;DHT22;56184;51.986;5.760;2023-01-15T07:11:59;5.50;99.90
69082;DHT22;56184;51.986;5.760;2023-01-15T07:18:02;5.40;99.90
69082;DHT22;56184;51.986;5.760;2023-01-15T07:20:47;5.40;99.90
69082;DHT22;56184;51.986;5.760;2023-01-15T07:23:50;5.30;99.90
69082;DHT22;56184;51.986;5.760;2023-01-15T07:26:22;5.30;99.90
69082;DHT22;56184;51.986;5.760;2023-01-15T07:28:57;5.30;99.90
69082;DHT22;56184;51.986;5.760;2023-01-15T07:31:31;5.40;99.90
69082;DHT22;56184;51.986;5.760;2023-01-15T07:33:59;5.40;99.90
69082;DHT22;56184;51.986;5.760;2023-01-15T07:36:25;5.40;99.90
69082;DHT22;56184;51.986;5.760;2023-01-15T07:39:34;5.40;99.90
69082;DHT22;56184;51.986;5.760;2023-01-15T07:42:26;5.50;99.90
69082;DHT22;56184;51.986;5.760;2023-01-15T07:45:16;5.40;99.90
69082;DHT22;56184;51.986;5.760;2023-01-15T07:48:01;5.40;99.90
69082;DHT22;56184;51.986;5.760;2023-01-15T07:50:53;5.40;99.90
69082;DHT22;56184;51.986;5.760;2023-01-15T07:53:34;5.40;99.90
69082;DHT22;56184;51.986;5.760;2023-01-15T07:56:10;5.40;99.90
69082;DHT22;56184;51.986;5.760;2023-01-15T07:59:03;5.40;99.90
69082;DHT22;56184;51.986;5.760;2023-01-15T08:01:32;5.30;99.90
69082;DHT22;56184;51.986;5.760;2023-01-15T08:03:58;5.40;99.90
69082;DHT22;56184;51.986;5.760;2023-01-15T08:06:28;5.50;99.90
69082;DHT22;56184;51.986;5.760;2023-01-15T08:09:00;5.50;99.90
69082;DHT22;56184;51.986;5.760;2023-01-15T08:11:26;5.50;99.90
69082;DHT22;56184;51.986;5.760;2023-01-15T08:14:28;5.60;99.40
69082;DHT22;56184;51.986;5.760;2023-01-15T08:17:57;5.60;99.80
69082;DHT22;56184;51.986;5.760;2023-01-15T08:20:27;5.60;99.90
69082;DHT22;56184;51.986;5.760;2023-01-15T08:22:55;5.60;99.80
69082;DHT22;56184;51.986;5.760;2023-01-15T08:25:30;5.60;99.80
69082;DHT22;56184;51.986;5.760;2023-01-15T08:28:01;5.60;99.00
69082;DHT22;56184;51.986;5.760;2023-01-15T08:30:33;5.70;98.30
69082;DHT22;56184;51.986;5.760;2023-01-15T08:33:01;5.70;98.80
69082;DHT22;56184;51.986;5.760;2023-01-15T08:35:30;5.70;99.90
69082;DHT22;56184;51.986;5.760;2023-01-15T08:37:55;5.70;98.20
69082;DHT22;56184;51.986;5.760;2023-01-15T08:40:22;5.70;98.20
69082;DHT22;56184;51.986;5.760;2023-01-15T08:42:48;5.70;97.40
69082;DHT22;56184;51.986;5.760;2023-01-15T08:45:31;5.80;97.50
69082;DHT22;56184;51.986;5.760;2023-01-15T08:47:57;5.80;98.40
69082;DHT22;56184;51.986;5.760;2023-01-15T08:50:31;5.80;97.90
69082;DHT22;56184;51.986;5.760;2023-01-15T08:53:17;5.80;98.90
69082;DHT22;56184;51.986;5.760;2023-01-15T08:59:05;5.80;97.20
69082;DHT22;56184;51.986;5.760;2023-01-15T09:08:28;5.90;96.00
69082;DHT22;56184;51.986;5.760;2023-01-15T09:11:01;6.00;97.10
69082;DHT22;56184;51.986;5.760;2023-01-15T09:13:28;6.00;97.40
69082;DHT22;56184;51.986;5.760;2023-01-15T09:16:02;6.00;95.90
69082;DHT22;56184;51.986;5.760;2023-01-15T09:19:12;6.00;96.40
69082;DHT22;56184;51.986;5.760;2023-01-15T09:25:06;6.00;95.40
69082;DHT22;56184;51.986;5.760;2023-01-15T09:27:32;6.10;95.50
69082;DHT22;56184;51.986;5.760;2023-01-15T09:29:59;6.10;95.50
69082;DHT22;56184;51.986;5.760;2023-01-15T09:32:58;6.10;95.90
69082;DHT22;56184;51.986;5.760;2023-01-15T10:09:34;6.50;96.10
69082;DHT22;56184;51.986;5.760;2023-01-15T10:15:39;6.50;95.90
69082;DHT22;56184;51.986;5.760;2023-01-15T10:18:31;6.80;95.50
69082;DHT22;56184;51.986;5.760;2023-01-15T10:21:00;6.70;96.70
69082;DHT22;56184;51.986;5.760;2023-01-15T10:27:26;6.70;95.20
69082;DHT22;56184;51.986;5.760;2023-01-15T10:32:56;6.70;95.90
69082;DHT22;56184;51.986;5.760;2023-01-15T10:45:25;7.00;94.60
69082;DHT22;56184;51.986;5.760;2023-01-15T10:48:00;7.20;94.00
69082;DHT22;56184;51.986;5.760;2023-01-15T10:54:24;7.30;93.60
69082;DHT22;56184;51.986;5.760;2023-01-15T10:56:58;7.40;94.30
69082;DHT22;56184;51.986;5.760;2023-01-15T10:59:32;7.30;93.40
69082;DHT22;56184;51.986;5.760;2023-01-15T11:02:00;7.40;92.70
69082;DHT22;56184;51.986;5.760;2023-01-15T11:07:54;7.60;91.90
69082;DHT22;56184;51.986;5.760;2023-01-15T11:10:39;7.60;92.40
69082;DHT22;56184;51.986;5.760;2023-01-15T11:13:29;7.70;92.50
69082;DHT22;56184;51.986;5.760;2023-01-15T11:16:26;7.50;91.90
69082;DHT22;56184;51.986;5.760;2023-01-15T11:22:42;7.60;93.50
69082;DHT22;56184;51.986;5.760;2023-01-15T11:25:09;7.70;91.70
69082;DHT22;56184;51.986;5.760;2023-01-15T11:27:57;7.90;92.20
69082;DHT22;56184;51.986;5.760;2023-01-15T11:30:53;7.80;93.20
69082;DHT22;56184;51.986;5.760;2023-01-15T11:33:44;8.00;92.50
69082;DHT22;56184;51.986;5.760;2023-01-15T11:36:36;7.90;92.90
69082;DHT22;56184;51.986;5.760;2023-01-15T11:39:25;7.90;93.50
69082;DHT22;56184;51.986;5.760;2023-01-15T11:42:04;7.80;93.40
69082;DHT22;56184;51.986;5.760;2023-01-15T11:45:11;7.90;94.20
69082;DHT22;56184;51.986;5.760;2023-01-15T11:47:55;7.80;94.30
69082;DHT22;56184;51.986;5.760;2023-01-15T11:53:22;7.70;93.50
69082;DHT22;56184;51.986;5.760;2023-01-15T11:55:58;7.60;96.30
69082;DHT22;56184;51.986;5.760;2023-01-15T11:58:37;7.20;99.00
69082;DHT22;56184;51.986;5.760;2023-01-15T12:01:23;6.80;99.90
69082;DHT22;56184;51.986;5.760;2023-01-15T12:03:51;6.60;99.90
69082;DHT22;56184;51.986;5.760;2023-01-15T12:06:20;6.50;99.90
69082;DHT22;56184;51.986;5.760;2023-01-15T12:08:52;6.50;99.90
69082;DHT22;56184;51.986;5.760;2023-01-15T12:12:02;6.60;99.90
69082;DHT22;56184;51.986;5.760;2023-01-15T12:15:08;6.80;99.90
69082;DHT22;56184;51.986;5.760;2023-01-15T12:18:03;6.90;99.90
69082;DHT22;56184;51.986;5.760;2023-01-15T12:26:33;7.10;98.10
69082;DHT22;56184;51.986;5.760;2023-01-15T12:29:26;7.10;98.10
69082;DHT22;56184;51.986;5.760;2023-01-15T12:35:54;7.00;98.90
69082;DHT22;56184;51.986;5.760;2023-01-15T12:55:18;6.50;99.90
69082;DHT22;56184;51.986;5.760;2023-01-15T13:04:52;6.40;99.90
69082;DHT22;56184;51.986;5.760;2023-01-15T13:07:37;6.30;99.90
69082;DHT22;56184;51.986;5.760;2023-01-15T13:10:30;6.40;99.90
69082;DHT22;56184;51.986;5.760;2023-01-15T13:13:25;6.40;99.90
69082;DHT22;56184;51.986;5.760;2023-01-15T13:19:06;6.40;99.90
69082;DHT22;56184;51.986;5.760;2023-01-15T13:22:02;6.40;99.90
69082;DHT22;56184;51.986;5.760;2023-01-15T13:37:35;6.50;99.90
69082;DHT22;56184;51.986;5.760;2023-01-15T13:42:47;6.60;99.90
69082;DHT22;56184;51.986;5.760;2023-01-15T13:45:36;6.60;99.90
69082;DHT22;56184;51.986;5.760;2023-01-15T13:49:23;6.50;99.90
69082;DHT22;56184;51.986;5.760;2023-01-15T13:51:33;6.50;99.90
69082;DHT22;56184;51.986;5.760;2023-01-15T13:54:27;6.40;99.90
69082;DHT22;56184;51.986;5.760;2023-01-15T14:06:01;6.30;99.90
69082;DHT22;56184;51.986;5.760;2023-01-15T14:27:33;6.60;99.90
69082;DHT22;56184;51.986;5.760;2023-01-15T14:36:28;6.50;99.90
69082;DHT22;56184;51.986;5.760;2023-01-15T14:39:00;6.50;99.90
69082;DHT22;56184;51.986;5.760;2023-01-15T14:41:32;6.50;99.90
69082;DHT22;56184;51.986;5.760;2023-01-15T14:44:02;6.50;99.90
69082;DHT22;56184;51.986;5.760;2023-01-15T14:46:31;6.40;99.90
69082;DHT22;56184;51.986;5.760;2023-01-15T14:48:59;6.50;99.90
69082;DHT22;56184;51.986;5.760;2023-01-15T14:51:31;6.50;99.90
69082;DHT22;56184;51.986;5.760;2023-01-15T14:54:08;6.40;99.90
69082;DHT22;56184;51.986;5.760;2023-01-15T14:56:44;6.40;99.90
69082;DHT22;56184;51.986;5.760;2023-01-15T15:00:00;6.40;99.90
69082;DHT22;56184;51.986;5.760;2023-01-15T15:02:46;6.50;99.90
69082;DHT22;56184;51.986;5.760;2023-01-15T15:05:22;6.50;99.90
69082;DHT22;56184;51.986;5.760;2023-01-15T15:07:50;6.60;99.90
69082;DHT22;56184;51.986;5.760;2023-01-15T15:10:57;6.70;99.90
69082;DHT22;56184;51.986;5.760;2023-01-15T15:13:33;6.60;99.90
69082;DHT22;56184;51.986;5.760;2023-01-15T15:16:24;6.60;99.90
69082;DHT22;56184;51.986;5.760;2023-01-15T15:19:28;6.70;99.90
69082;DHT22;56184;51.986;5.760;2023-01-15T15:21:57;6.60;99.90
69082;DHT22;56184;51.986;5.760;2023-01-15T15:24:48;6.60;99.90
69082;DHT22;56184;51.986;5.760;2023-01-15T15:27:29;6.50;99.90
69082;DHT22;56184;51.986;5.760;2023-01-15T15:30:14;6.50;99.90
69082;DHT22;56184;51.986;5.760;2023-01-15T15:32:45;6.50;99.90
69082;DHT22;56184;51.986;5.760;2023-01-15T15:35:38;6.40;99.90
69082;DHT22;56184;51.986;5.760;2023-01-15T15:38:25;6.30;99.90
69082;DHT22;56184;51.986;5.760;2023-01-15T15:40:58;6.30;99.90
69082;DHT22;56184;51.986;5.760;2023-01-15T15:43:58;6.30;99.90
69082;DHT22;56184;51.986;5.760;2023-01-15T15:46:50;6.30;99.90
69082;DHT22;56184;51.986;5.760;2023-01-15T15:49:38;6.30;99.90
69082;DHT22;56184;51.986;5.760;2023-01-15T15:52:23;6.30;99.90
69082;DHT22;56184;51.986;5.760;2023-01-15T15:55:04;6.30;99.90
69082;DHT22;56184;51.986;5.760;2023-01-15T15:57:31;6.20;99.90
69082;DHT22;56184;51.986;5.760;2023-01-15T15:59:58;6.30;99.90
69082;DHT22;56184;51.986;5.760;2023-01-15T16:02:31;6.30;99.90
69082;DHT22;56184;51.986;5.760;2023-01-15T16:05:23;6.30;99.90
69082;DHT22;56184;51.986;5.760;2023-01-15T16:08:52;6.40;99.90
69082;DHT22;56184;51.986;5.760;2023-01-15T16:11:26;6.50;99.90
69082;DHT22;56184;51.986;5.760;2023-01-15T16:13:53;6.50;99.90
69082;DHT22;56184;51.986;5.760;2023-01-15T16:16:29;6.50;99.90
69082;DHT22;56184;51.986;5.760;2023-01-15T16:18:59;6.50;99.90
69082;DHT22;56184;51.986;5.760;2023-01-15T16:21:28;6.50;99.90
69082;DHT22;56184;51.986;5.760;2023-01-15T16:24:20;6.60;99.90
69082;DHT22;56184;51.986;5.760;2023-01-15T16:27:21;6.50;99.90
69082;DHT22;56184;51.986;5.760;2023-01-15T16:30:03;6.50;99.90
69082;DHT22;56184;51.986;5.760;2023-01-15T16:32:31;6.50;99.90
69082;DHT22;56184;51.986;5.760;2023-01-15T16:35:33;6.40;99.90
69082;DHT22;56184;51.986;5.760;2023-01-15T16:38:23;6.40;99.90
69082;DHT22;56184;51.986;5.760;2023-01-15T16:41:27;6.40;99.90
69082;DHT22;56184;51.986;5.760;2023-01-15T16:44:04;6.50;99.90
69082;DHT22;56184;51.986;5.760;2023-01-15T16:46:52;6.60;99.90
69082;DHT22;56184;51.986;5.760;2023-01-15T16:50:26;6.50;99.90
69082;DHT22;56184;51.986;5.760;2023-01-15T16:52:55;6.50;99.90
69082;DHT22;56184;51.986;5.760;2023-01-15T16:58:42;6.50;99.90
69082;DHT22;56184;51.986;5.760;2023-01-15T17:01:44;6.60;99.90
69082;DHT22;56184;51.986;5.760;2023-01-15T17:04:33;6.60;99.90
69082;DHT22;56184;51.986;5.760;2023-01-15T17:07:31;6.60;99.90
69082;DHT22;56184;51.986;5.760;2023-01-15T17:10:04;6.50;99.90
69082;DHT22;56184;51.986;5.760;2023-01-15T17:12:37;6.50;99.90
69082;DHT22;56184;51.986;5.760;2023-01-15T17:15:33;6.50;99.90
69082;DHT22;56184;51.986;5.760;2023-01-15T17:18:29;6.50;99.90
69082;DHT22;56184;51.986;5.760;2023-01-15T17:21:16;6.60;99.90
69082;DHT22;56184;51.986;5.760;2023-01-15T17:23:45;6.50;99.90
69082;DHT22;56184;51.986;5.760;2023-01-15T17:26:31;6.50;99.80
69082;DHT22;56184;51.986;5.760;2023-01-15T17:28:59;6.50;99.90
69082;DHT22;56184;51.986;5.760;2023-01-15T17:31:32;6.40;99.90
69082;DHT22;56184;51.986;5.760;2023-01-15T17:34:08;6.50;99.90
69082;DHT22;56184;51.986;5.760;2023-01-15T17:36:55;6.50;99.90
69082;DHT22;56184;51.986;5.760;2023-01-15T17:39:20;6.50;99.60
69082;DHT22;56184;51.986;5.760;2023-01-15T17:41:56;6.50;99.90
69082;DHT22;56184;51.986;5.760;2023-01-15T17:44:21;6.40;99.90
69082;DHT22;56184;51.986;5.760;2023-01-15T17:46:50;6.40;99.90
69082;DHT22;56184;51.986;5.760;2023-01-15T17:49:16;6.40;99.90
69082;DHT22;56184;51.986;5.760;2023-01-15T17:51:48;6.30;99.40
69082;DHT22;56184;51.986;5.760;2023-01-15T17:54:23;6.30;99.90
69082;DHT22;56184;51.986;5.760;2023-01-15T17:57:08;6.30;99.90
69082;DHT22;56184;51.986;5.760;2023-01-15T17:59:52;6.40;99.30
69082;DHT22;56184;51.986;5.760;2023-01-15T18:02:36;6.30;99.90
69082;DHT22;56184;51.986;5.760;2023-01-15T18:05:39;6.30;99.90
69082;DHT22;56184;51.986;5.760;2023-01-15T18:08:20;6.30;99.30
69082;DHT22;56184;51.986;5.760;2023-01-15T18:11:19;6.20;99.80
69082;DHT22;56184;51.986;5.760;2023-01-15T18:14:39;6.00;99.70
69082;DHT22;56184;51.986;5.760;2023-01-15T18:17:17;6.10;99.90
69082;DHT22;56184;51.986;5.760;2023-01-15T18:19:57;6.10;99.90
69082;DHT22;56184;51.986;5.760;2023-01-15T18:22:44;6.10;99.90
69082;DHT22;56184;51.986;5.760;2023-01-15T18:26:01;6.10;99.90
69082;DHT22;56184;51.986;5.760;2023-01-15T18:28:41;6.00;99.90
69082;DHT22;56184;51.986;5.760;2023-01-15T18:31:10;6.00;99.90
69082;DHT22;56184;51.986;5.760;2023-01-15T18:33:45;6.00;99.90
69082;DHT22;56184;51.986;5.760;2023-01-15T18:36:15;5.90;99.90
69082;DHT22;56184;51.986;5.760;2023-01-15T18:38:59;5.90;99.90
69082;DHT22;56184;51.986;5.760;2023-01-15T18:41:27;5.90;99.90
69082;DHT22;56184;51.986;5.760;2023-01-15T18:44:18;5.90;99.90
69082;DHT22;56184;51.986;5.760;2023-01-15T18:47:08;5.90;99.90
69082;DHT22;56184;51.986;5.760;2023-01-15T18:49:37;5.90;99.90
69082;DHT22;56184;51.986;5.760;2023-01-15T18:52:03;5.90;99.30
69082;DHT22;56184;51.986;5.760;2023-01-15T18:54:47;5.80;99.90
69082;DHT22;56184;51.986;5.760;2023-01-15T18:57:13;5.70;99.90
69082;DHT22;56184;51.986;5.760;2023-01-15T18:59:39;5.50;99.90
69082;DHT22;56184;51.986;5.760;2023-01-15T19:02:05;5.70;99.90
69082;DHT22;56184;51.986;5.760;2023-01-15T19:04:31;5.70;99.90
69082;DHT22;56184;51.986;5.760;2023-01-15T19:06:57;5.60;99.90
69082;DHT22;56184;51.986;5.760;2023-01-15T19:09:23;5.60;99.90
69082;DHT22;56184;51.986;5.760;2023-01-15T19:12:12;5.50;99.90
69082;DHT22;56184;51.986;5.760;2023-01-15T19:14:59;5.60;99.90
69082;DHT22;56184;51.986;5.760;2023-01-15T19:17:44;5.50;99.70
69082;DHT22;56184;51.986;5.760;2023-01-15T19:20:37;5.60;99.90
69082;DHT22;56184;51.986;5.760;2023-01-15T19:23:08;5.50;99.90
69082;DHT22;56184;51.986;5.760;2023-01-15T19:26:12;5.50;99.90
69082;DHT22;56184;51.986;5.760;2023-01-15T19:28:46;5.50;99.90
69082;DHT22;56184;51.986;5.760;2023-01-15T19:31:26;5.40;99.90
69082;DHT22;56184;51.986;5.760;2023-01-15T19:34:03;5.40;99.90
69082;DHT22;56184;51.986;5.760;2023-01-15T19:36:32;5.40;99.90
69082;DHT22;56184;51.986;5.760;2023-01-15T19:38:57;5.30;99.90
69082;DHT22;56184;51.986;5.760;2023-01-15T19:41:23;5.30;99.90
69082;DHT22;56184;51.986;5.760;2023-01-15T19:44:23;5.30;99.90
69082;DHT22;56184;51.986;5.760;2023-01-15T19:47:27;5.40;99.90
69082;DHT22;56184;51.986;5.760;2023-01-15T19:50:19;5.30;99.80
69082;DHT22;56184;51.986;5.760;2023-01-15T19:52:51;5.20;99.90
69082;DHT22;56184;51.986;5.760;2023-01-15T19:55:18;5.20;99.90
69082;DHT22;56184;51.986;5.760;2023-01-15T19:58:21;5.10;99.90
69082;DHT22;56184;51.986;5.760;2023-01-15T20:00:47;5.20;99.90
69082;DHT22;56184;51.986;5.760;2023-01-15T20:03:29;5.20;99.90
69082;DHT22;56184;51.986;5.760;2023-01-15T20:06:06;5.10;99.90
69082;DHT22;56184;51.986;5.760;2023-01-15T20:08:32;5.10;99.90
69082;DHT22;56184;51.986;5.760;2023-01-15T20:11:13;5.10;99.90
69082;DHT22;56184;51.986;5.760;2023-01-15T20:13:45;5.10;99.90
69082;DHT22;56184;51.986;5.760;2023-01-15T20:16:18;5.00;99.90
69082;DHT22;56184;51.986;5.760;2023-01-15T20:18:52;5.00;99.90
69082;DHT22;56184;51.986;5.760;2023-01-15T20:21:38;5.00;99.90
69082;DHT22;56184;51.986;5.760;2023-01-15T20:27:25;5.00;99.90
69082;DHT22;56184;51.986;5.760;2023-01-15T20:30:16;5.00;99.90
69082;DHT22;56184;51.986;5.760;2023-01-15T20:32:43;5.00;99.90
69082;DHT22;56184;51.986;5.760;2023-01-15T20:35:19;5.00;99.90
69082;DHT22;56184;51.986;5.760;2023-01-15T20:37:55;5.00;99.90
69082;DHT22;56184;51.986;5.760;2023-01-15T20:40:27;4.90;99.90
69082;DHT22;56184;51.986;5.760;2023-01-15T20:46:11;5.00;99.90
69082;DHT22;56184;51.986;5.760;2023-01-15T20:48:39;5.00;99.90
69082;DHT22;56184;51.986;5.760;2023-01-15T20:51:32;5.10;99.90